createdAt,value
2022-09-21T00:01:16.310Z,9.13
2022-09-21T00:03:43.585Z,7.53
2022-09-21T00:06:13.501Z,7.80
2022-09-21T00:08:40.622Z,7.43
2022-09-21T00:11:08.665Z,7.20
2022-09-21T00:13:37.895Z,6.70
2022-09-21T00:16:09.048Z,6.80
2022-09-21T00:18:36.523Z,6.87
2022-09-21T00:21:12.949Z,7.30
2022-09-21T00:23:40.534Z,6.60
2022-09-21T00:26:13.528Z,6.50
2022-09-21T00:28:40.749Z,6.33
2022-09-21T00:31:12.126Z,6.90
2022-09-21T00:33:40.870Z,6.40
2022-09-21T00:36:12.085Z,7.47
2022-09-21T00:38:39.057Z,6.60
2022-09-21T00:41:07.274Z,7.27
2022-09-21T00:43:35.916Z,7.17
2022-09-21T00:46:12.214Z,6.97
2022-09-21T00:48:39.007Z,6.93
2022-09-21T00:51:08.148Z,7.43
2022-09-21T00:53:37.559Z,7.17
2022-09-21T00:56:06.688Z,7.57
2022-09-21T00:58:42.685Z,7.80
2022-09-21T01:01:12.005Z,6.70
2022-09-21T01:03:39.630Z,6.40
2022-09-21T01:06:06.386Z,7.97
2022-09-21T01:08:35.066Z,8.27
2022-09-21T01:11:15.902Z,7.10
2022-09-21T01:14:15.258Z,6.20
2022-09-21T01:17:11.094Z,5.90
2022-09-21T01:20:20.587Z,6.27
2022-09-21T01:23:16.427Z,6.77
2022-09-21T01:25:59.015Z,6.40
2022-09-21T01:28:57.704Z,6.50
2022-09-21T01:31:31.003Z,7.90
2022-09-21T01:34:05.725Z,8.10
2022-09-21T01:36:34.931Z,6.63
2022-09-21T01:39:12.952Z,7.10
2022-09-21T01:41:42.536Z,7.07
2022-09-21T01:44:17.742Z,7.73
2022-09-21T01:46:47.645Z,7.30
2022-09-21T01:49:27.823Z,7.20
2022-09-21T01:52:02.485Z,9.70
2022-09-21T01:54:39.169Z,7.20
2022-09-21T01:57:14.428Z,7.10
2022-09-21T01:59:52.702Z,6.80
2022-09-21T02:02:58.492Z,7.00
2022-09-21T02:05:28.310Z,8.30
2022-09-21T02:07:55.550Z,6.10
2022-09-21T02:10:39.971Z,6.00
2022-09-21T02:13:08.040Z,6.80
2022-09-21T02:15:40.906Z,6.67
2022-09-21T02:18:33.312Z,6.50
2022-09-21T02:21:04.013Z,7.07
2022-09-21T02:23:45.213Z,7.40
2022-09-21T02:26:17.344Z,8.10
2022-09-21T02:28:51.208Z,6.00
2022-09-21T02:31:31.109Z,8.00
2022-09-21T02:34:34.099Z,6.20
2022-09-21T02:37:33.355Z,6.00
2022-09-21T02:40:22.916Z,6.17
2022-09-21T02:42:55.389Z,5.93
2022-09-21T02:45:26.573Z,6.77
2022-09-21T02:48:14.463Z,6.57
2022-09-21T02:51:03.375Z,6.43
2022-09-21T02:53:36.232Z,6.47
2022-09-21T02:56:07.231Z,6.30
2022-09-21T02:58:38.100Z,8.00
2022-09-21T03:01:07.657Z,6.67
2022-09-21T03:03:34.815Z,6.60
2022-09-21T03:06:02.131Z,7.20
2022-09-21T03:08:30.402Z,6.27
2022-09-21T03:10:57.815Z,6.07
2022-09-21T03:13:24.844Z,7.30
2022-09-21T03:16:02.714Z,7.93
2022-09-21T03:18:30.446Z,7.97
2022-09-21T03:20:57.671Z,7.97
2022-09-21T03:23:24.476Z,9.70
2022-09-21T03:25:54.602Z,9.67
2022-09-21T03:28:21.978Z,10.57
2022-09-21T03:30:50.280Z,8.50
2022-09-21T03:33:18.091Z,8.80
2022-09-21T03:35:45.019Z,8.37
2022-09-21T03:38:12.468Z,9.80
2022-09-21T03:40:39.285Z,10.17
2022-09-21T03:43:05.943Z,10.47
2022-09-21T03:45:32.617Z,10.70
2022-09-21T03:48:01.138Z,10.33
2022-09-21T03:50:29.216Z,10.20
2022-09-21T03:52:56.883Z,12.70
2022-09-21T03:55:24.139Z,11.07
2022-09-21T03:57:50.861Z,9.33
2022-09-21T04:00:18.028Z,8.10
2022-09-21T04:02:44.725Z,9.77
2022-09-21T04:05:17.289Z,6.43
2022-09-21T04:07:47.999Z,6.50
2022-09-21T04:10:17.679Z,7.90
2022-09-21T04:12:45.913Z,6.90
2022-09-21T04:15:19.546Z,6.70
2022-09-21T04:17:47.152Z,7.80
2022-09-21T04:20:13.800Z,6.20
2022-09-21T04:22:43.592Z,6.03
2022-09-21T04:25:12.786Z,6.70
2022-09-21T04:27:39.944Z,5.80
2022-09-21T04:30:07.683Z,6.10
2022-09-21T04:32:34.610Z,6.80
2022-09-21T04:35:01.372Z,7.47
2022-09-21T04:37:28.112Z,7.50
2022-09-21T04:39:54.775Z,7.03
2022-09-21T04:42:21.534Z,5.67
2022-09-21T04:44:48.208Z,8.57
2022-09-21T04:47:15.376Z,6.50
2022-09-21T04:49:42.173Z,5.97
2022-09-21T04:52:08.890Z,7.00
2022-09-21T04:54:35.657Z,7.00
2022-09-21T04:57:02.284Z,7.30
2022-09-21T04:59:28.942Z,8.60
2022-09-21T05:01:55.695Z,8.17
2022-09-21T05:04:22.321Z,8.30
2022-09-21T05:06:49.041Z,10.43
2022-09-21T05:09:34.596Z,7.40
2022-09-21T05:12:02.990Z,7.27
2022-09-21T05:14:29.645Z,7.40
2022-09-21T05:16:56.404Z,7.67
2022-09-21T05:19:23.601Z,8.87
2022-09-21T05:21:50.293Z,8.70
2022-09-21T05:24:17.107Z,9.27
2022-09-21T05:26:43.823Z,8.83
2022-09-21T05:29:10.718Z,8.27
2022-09-21T05:31:58.937Z,8.43
2022-09-21T05:34:57.108Z,9.73
2022-09-21T05:37:51.828Z,14.17
2022-09-21T05:40:19.058Z,10.63
2022-09-21T05:42:46.205Z,10.77
2022-09-21T05:45:18.224Z,10.77
2022-09-21T05:48:28.333Z,10.77
2022-09-21T05:51:03.474Z,11.50
2022-09-21T05:53:30.066Z,11.80
2022-09-21T05:56:04.853Z,11.37
2022-09-21T05:59:01.121Z,11.93
2022-09-21T06:01:27.772Z,10.80
2022-09-21T06:03:55.674Z,11.03
2022-09-21T06:06:22.369Z,10.50
2022-09-21T06:08:49.192Z,11.43
2022-09-21T06:11:16.014Z,11.80
2022-09-21T06:13:43.263Z,11.13
2022-09-21T06:16:10.038Z,15.80
2022-09-21T06:18:40.829Z,11.47
2022-09-21T06:21:08.466Z,12.03
2022-09-21T06:23:35.511Z,10.23
2022-09-21T06:26:02.456Z,11.13
2022-09-21T06:28:29.785Z,9.07
2022-09-21T06:30:58.417Z,9.07
2022-09-21T06:33:25.826Z,8.50
2022-09-21T06:35:54.758Z,8.90
2022-09-21T06:38:21.952Z,8.50
2022-09-21T06:40:48.695Z,8.33
2022-09-21T06:43:15.506Z,9.70
2022-09-21T06:45:42.696Z,8.67
2022-09-21T06:48:09.659Z,9.20
2022-09-21T06:50:36.595Z,10.07
2022-09-21T06:53:04.048Z,9.30
2022-09-21T06:55:31.627Z,9.33
2022-09-21T06:58:05.355Z,8.97
2022-09-21T07:00:32.858Z,9.93
2022-09-21T07:02:59.827Z,9.60
2022-09-21T07:05:26.905Z,9.10
2022-09-21T07:07:59.759Z,10.20
2022-09-21T07:10:26.587Z,8.03
2022-09-21T07:12:53.315Z,8.90
2022-09-21T07:15:21.366Z,7.83
2022-09-21T07:17:52.308Z,9.03
2022-09-21T07:20:19.818Z,12.73
2022-09-21T07:22:46.539Z,9.07
2022-09-21T07:25:14.003Z,12.57
2022-09-21T07:27:40.781Z,11.07
2022-09-21T07:30:08.647Z,10.83
2022-09-21T07:32:36.497Z,9.07
2022-09-21T07:35:03.663Z,10.97
2022-09-21T07:37:31.638Z,9.93
2022-09-21T07:39:58.297Z,10.70
2022-09-21T07:42:26.430Z,9.40
2022-09-21T07:45:03.116Z,9.27
2022-09-21T07:47:31.470Z,10.27
2022-09-21T07:49:58.393Z,9.40
2022-09-21T07:52:25.221Z,9.67
2022-09-21T07:54:51.928Z,10.23
2022-09-21T07:57:37.420Z,9.60
2022-09-21T08:00:05.347Z,10.03
2022-09-21T08:02:32.062Z,9.93
2022-09-21T08:04:58.849Z,9.77
2022-09-21T08:07:26.645Z,9.50
2022-09-21T08:09:53.440Z,9.37
2022-09-21T08:12:20.717Z,8.50
2022-09-21T08:14:48.149Z,8.33
2022-09-21T08:17:15.203Z,8.70
2022-09-21T08:19:41.978Z,8.43
2022-09-21T08:22:08.819Z,7.63
2022-09-21T08:24:35.737Z,10.17
2022-09-21T08:27:02.516Z,6.83
2022-09-21T08:29:30.325Z,5.13
2022-09-21T08:31:57.598Z,6.27
2022-09-21T08:34:24.577Z,4.37
2022-09-21T08:36:55.283Z,6.00
2022-09-21T08:39:22.778Z,5.70
2022-09-21T08:42:08.405Z,4.87
2022-09-21T08:44:43.465Z,5.43
2022-09-21T08:47:16.095Z,4.57
2022-09-21T08:49:49.576Z,4.50
2022-09-21T08:52:19.838Z,5.00
2022-09-21T08:54:53.187Z,6.30
2022-09-21T08:57:20.764Z,5.30
2022-09-21T08:59:49.440Z,5.27
2022-09-21T09:02:51.201Z,4.23
2022-09-21T09:05:45.214Z,6.30
2022-09-21T09:08:26.175Z,8.47
2022-09-21T09:11:01.800Z,10.93
2022-09-21T09:13:37.405Z,4.17
2022-09-21T09:16:07.272Z,3.80
2022-09-21T09:18:51.129Z,2.90
2022-09-21T09:21:45.123Z,3.67
2022-09-21T09:24:33.715Z,2.83
2022-09-21T09:27:15.133Z,3.33
2022-09-21T09:30:03.248Z,5.23
2022-09-21T09:32:47.409Z,3.30
2022-09-21T09:35:44.679Z,2.90
2022-09-21T09:38:39.703Z,2.03
2022-09-21T09:41:18.579Z,4.37
2022-09-21T09:44:13.194Z,2.20
2022-09-21T09:47:23.213Z,3.80
2022-09-21T09:50:13.377Z,2.57
2022-09-21T09:52:41.297Z,2.50
2022-09-21T09:55:30.333Z,2.33
2022-09-21T09:57:58.319Z,2.33
2022-09-21T10:00:25.048Z,5.20
2022-09-21T10:02:58.536Z,4.83
2022-09-21T10:05:38.557Z,2.10
2022-09-21T10:08:05.395Z,2.30
2022-09-21T10:10:37.619Z,1.87
2022-09-21T10:13:07.233Z,2.20
2022-09-21T10:15:34.153Z,1.70
2022-09-21T10:18:11.867Z,2.53
2022-09-21T10:20:38.696Z,1.83
2022-09-21T10:23:05.923Z,2.67
2022-09-21T10:25:34.802Z,2.00
2022-09-21T10:28:06.045Z,2.20
2022-09-21T10:30:36.383Z,3.23
2022-09-21T10:33:03.666Z,5.00
2022-09-21T10:35:30.476Z,5.53
2022-09-21T10:38:27.582Z,3.83
2022-09-21T10:40:55.042Z,3.33
2022-09-21T10:43:25.659Z,4.33
2022-09-21T10:45:57.371Z,3.17
2022-09-21T10:48:26.829Z,2.53
2022-09-21T10:50:54.901Z,3.07
2022-09-21T10:53:30.709Z,3.20
2022-09-21T10:56:15.059Z,4.10
2022-09-21T10:59:20.220Z,2.80
2022-09-21T11:01:49.715Z,2.60
2022-09-21T11:04:49.529Z,3.10
2022-09-21T11:07:37.447Z,4.00
2022-09-21T11:10:16.277Z,3.43
2022-09-21T11:13:20.509Z,2.83
2022-09-21T11:16:11.718Z,2.40
2022-09-21T11:18:53.926Z,2.77
2022-09-21T11:21:34.289Z,2.07
2022-09-21T11:24:31.929Z,5.17
2022-09-21T11:27:11.241Z,2.30
2022-09-21T11:30:07.293Z,2.10
2022-09-21T11:32:53.248Z,2.07
2022-09-21T11:35:27.011Z,3.33
2022-09-21T11:38:02.411Z,4.63
2022-09-21T11:40:39.090Z,3.37
2022-09-21T11:43:26.980Z,2.57
2022-09-21T11:46:06.977Z,3.07
2022-09-21T11:48:56.905Z,2.33
2022-09-21T11:51:26.564Z,2.10
2022-09-21T11:54:13.044Z,3.00
2022-09-21T11:56:57.527Z,3.03
2022-09-21T11:59:43.944Z,2.67
2022-09-21T12:02:45.640Z,2.10
2022-09-21T12:05:33.742Z,2.53
2022-09-21T12:08:24.503Z,2.53
2022-09-21T12:11:30.362Z,1.70
2022-09-21T12:14:22.569Z,2.30
2022-09-21T12:17:40.495Z,1.90
2022-09-21T12:20:26.381Z,1.63
2022-09-21T12:23:03.523Z,2.53
2022-09-21T12:25:38.722Z,2.27
2022-09-21T12:28:13.821Z,1.90
2022-09-21T12:30:45.741Z,1.50
2022-09-21T12:33:34.011Z,1.90
2022-09-21T12:36:10.751Z,1.70
2022-09-21T12:39:20.917Z,2.90
2022-09-21T12:42:19.545Z,2.00
2022-09-21T12:45:00.560Z,2.20
2022-09-21T12:47:58.169Z,3.90
2022-09-21T12:50:36.886Z,1.60
2022-09-21T12:53:04.203Z,2.27
2022-09-21T12:55:30.847Z,4.73
2022-09-21T12:58:22.976Z,2.03
2022-09-21T13:01:09.271Z,2.40
2022-09-21T13:04:03.097Z,1.90
2022-09-21T13:06:35.783Z,2.10
2022-09-21T13:09:07.313Z,2.00
2022-09-21T13:11:51.450Z,1.77
2022-09-21T13:14:18.827Z,1.80
2022-09-21T13:16:58.595Z,2.37
2022-09-21T13:19:29.103Z,1.50
2022-09-21T13:22:19.883Z,2.50
2022-09-21T13:25:03.144Z,1.60
2022-09-21T13:28:09.332Z,1.80
2022-09-21T13:30:42.545Z,1.80
2022-09-21T13:33:30.769Z,3.10
2022-09-21T13:36:00.378Z,2.20
2022-09-21T13:38:34.148Z,2.33
2022-09-21T13:41:04.743Z,3.50
2022-09-21T13:44:08.974Z,2.53
2022-09-21T13:46:35.858Z,2.13
2022-09-21T13:49:15.410Z,1.80
2022-09-21T13:51:57.492Z,1.90
2022-09-21T13:54:28.630Z,1.53
2022-09-21T13:57:32.576Z,1.80
2022-09-21T14:00:28.480Z,2.00
2022-09-21T14:03:04.457Z,4.43
2022-09-21T14:05:43.177Z,1.60
2022-09-21T14:08:16.051Z,1.90
2022-09-21T14:10:53.669Z,1.77
2022-09-21T14:13:32.266Z,1.60
2022-09-21T14:16:34.220Z,1.80
2022-09-21T14:19:02.778Z,1.80
2022-09-21T14:21:29.887Z,1.80
2022-09-21T14:24:22.920Z,2.10
2022-09-21T14:26:58.986Z,2.00
2022-09-21T14:29:27.114Z,2.93
2022-09-21T14:31:57.692Z,1.50
2022-09-21T14:34:31.516Z,1.60
2022-09-21T14:37:02.995Z,2.43
2022-09-21T14:39:34.979Z,1.80
2022-09-21T14:42:12.457Z,1.70
2022-09-21T14:44:42.532Z,1.80
2022-09-21T14:47:36.543Z,1.70
2022-09-21T14:50:18.451Z,1.80
2022-09-21T14:52:59.705Z,1.67
2022-09-21T14:55:35.008Z,2.20
2022-09-21T14:58:11.652Z,2.33
2022-09-21T15:00:42.823Z,1.70
2022-09-21T15:03:27.703Z,2.03
2022-09-21T15:06:24.338Z,2.10
2022-09-21T15:09:37.008Z,1.80
2022-09-21T15:12:19.325Z,2.47
2022-09-21T15:15:05.558Z,1.90
2022-09-21T15:17:32.373Z,1.73
2022-09-21T15:20:03.569Z,1.87
2022-09-21T15:22:31.947Z,1.97
2022-09-21T15:25:03.974Z,1.60
2022-09-21T15:27:33.290Z,2.43
2022-09-21T15:30:04.666Z,1.60
2022-09-21T15:32:41.122Z,1.77
2022-09-21T15:35:18.311Z,1.53
2022-09-21T15:37:48.565Z,1.93
2022-09-21T15:40:21.674Z,2.20
2022-09-21T15:43:11.350Z,2.23
2022-09-21T15:45:58.058Z,4.27
2022-09-21T15:48:42.064Z,2.13
2022-09-21T15:51:15.278Z,3.80
2022-09-21T15:53:52.551Z,1.80
2022-09-21T15:56:22.895Z,1.90
2022-09-21T15:58:50.827Z,1.67
2022-09-21T16:01:21.514Z,2.00
2022-09-21T16:03:51.938Z,1.90
2022-09-21T16:06:21.887Z,2.47
2022-09-21T16:08:49.244Z,1.60
2022-09-21T16:11:37.671Z,1.80
2022-09-21T16:14:33.554Z,2.00
2022-09-21T16:17:12.230Z,2.00
2022-09-21T16:20:11.180Z,2.23
2022-09-21T16:22:39.155Z,2.20
2022-09-21T16:25:30.860Z,2.10
2022-09-21T16:28:02.769Z,2.00
2022-09-21T16:30:53.502Z,1.90
2022-09-21T16:33:41.050Z,2.40
2022-09-21T16:36:20.120Z,1.80
2022-09-21T16:38:55.784Z,1.70
2022-09-21T16:41:27.682Z,2.00
2022-09-21T16:43:58.152Z,2.77
2022-09-21T16:46:26.785Z,2.47
2022-09-21T16:48:55.009Z,1.87
2022-09-21T16:51:25.255Z,1.70
2022-09-21T16:53:52.576Z,1.90
2022-09-21T16:56:19.898Z,3.20
2022-09-21T16:58:47.166Z,2.87
2022-09-21T17:01:20.576Z,2.83
2022-09-21T17:03:48.084Z,2.10
2022-09-21T17:06:20.754Z,1.90
2022-09-21T17:08:49.269Z,2.20
2022-09-21T17:11:20.209Z,3.80
2022-09-21T17:13:47.823Z,1.70
2022-09-21T17:16:18.599Z,2.97
2022-09-21T17:18:46.287Z,3.10
2022-09-21T17:21:13.515Z,2.63
2022-09-21T17:23:41.970Z,2.13
2022-09-21T17:26:19.213Z,2.07
2022-09-21T17:28:46.252Z,1.90
2022-09-21T17:31:14.923Z,2.30
2022-09-21T17:33:42.336Z,2.37
2022-09-21T17:36:13.531Z,2.23
2022-09-21T17:38:40.486Z,2.03
2022-09-21T17:41:16.630Z,2.20
2022-09-21T17:43:53.806Z,4.47
2022-09-21T17:46:46.508Z,2.47
2022-09-21T17:49:13.632Z,3.60
2022-09-21T17:51:59.551Z,2.40
2022-09-21T17:54:26.946Z,2.23
2022-09-21T17:57:05.346Z,3.27
2022-09-21T17:59:34.381Z,3.47
2022-09-21T18:02:02.508Z,2.83
2022-09-21T18:04:33.034Z,2.83
2022-09-21T18:07:00.368Z,2.20
2022-09-21T18:09:27.399Z,4.10
2022-09-21T18:12:13.154Z,3.27
2022-09-21T18:15:23.001Z,3.13
2022-09-21T18:18:31.754Z,5.30
2022-09-21T18:21:05.968Z,4.67
2022-09-21T18:24:07.536Z,4.43
2022-09-21T18:26:34.936Z,3.53
2022-09-21T18:29:22.425Z,4.30
2022-09-21T18:31:57.881Z,4.10
2022-09-21T18:34:54.725Z,5.00
2022-09-21T18:37:36.229Z,4.47
2022-09-21T18:40:36.131Z,4.07
2022-09-21T18:43:34.202Z,3.97
2022-09-21T18:46:10.256Z,4.13
2022-09-21T18:48:54.728Z,4.47
2022-09-21T18:51:52.264Z,4.40
2022-09-21T18:54:27.485Z,4.00
2022-09-21T18:56:55.620Z,4.50
2022-09-21T18:59:23.137Z,5.80
2022-09-21T19:01:50.795Z,5.13
2022-09-21T19:04:20.231Z,4.63
2022-09-21T19:06:56.879Z,5.67
2022-09-21T19:10:01.038Z,5.00
2022-09-21T19:12:53.348Z,5.23
2022-09-21T19:15:58.988Z,5.30
2022-09-21T19:18:41.506Z,4.60
2022-09-21T19:21:39.488Z,4.20
2022-09-21T19:24:14.312Z,4.93
2022-09-21T19:27:12.011Z,5.63
2022-09-21T19:29:43.914Z,4.93
2022-09-21T19:32:31.917Z,4.30
2022-09-21T19:35:01.812Z,6.10
2022-09-21T19:37:28.678Z,4.67
2022-09-21T19:39:55.547Z,4.50
2022-09-21T19:42:34.491Z,4.33
2022-09-21T19:45:07.944Z,4.80
2022-09-21T19:47:52.959Z,5.03
2022-09-21T19:50:36.264Z,5.30
2022-09-21T19:53:24.282Z,5.53
2022-09-21T19:56:10.049Z,4.87
2022-09-21T19:58:55.245Z,4.40
2022-09-21T20:01:22.694Z,4.07
2022-09-21T20:03:50.162Z,3.83
2022-09-21T20:06:27.019Z,4.83
2022-09-21T20:09:17.024Z,5.83
2022-09-21T20:11:54.542Z,7.87
2022-09-21T20:14:35.005Z,5.63
2022-09-21T20:17:10.441Z,6.27
2022-09-21T20:19:58.160Z,5.93
2022-09-21T20:22:38.342Z,7.57
2022-09-21T20:25:42.670Z,5.80
2022-09-21T20:28:11.460Z,6.93
2022-09-21T20:30:39.995Z,6.47
2022-09-21T20:33:14.156Z,9.90
2022-09-21T20:35:42.787Z,7.20
2022-09-21T20:38:10.386Z,6.23
2022-09-21T20:40:38.402Z,7.90
2022-09-21T20:43:05.238Z,6.60
2022-09-21T20:45:33.256Z,7.47
2022-09-21T20:48:13.151Z,7.90
2022-09-21T20:50:46.302Z,7.23
2022-09-21T20:53:13.992Z,7.30
2022-09-21T20:55:41.719Z,6.37
2022-09-21T20:58:12.596Z,6.23
2022-09-21T21:00:39.807Z,7.30
2022-09-21T21:03:06.521Z,6.33
2022-09-21T21:05:34.384Z,6.40
2022-09-21T21:08:03.947Z,6.67
2022-09-21T21:10:31.682Z,6.33
2022-09-21T21:13:01.835Z,6.80
2022-09-21T21:15:29.197Z,6.53
2022-09-21T21:17:56.013Z,6.67
2022-09-21T21:20:22.816Z,5.97
2022-09-21T21:22:50.867Z,5.80
2022-09-21T21:25:18.509Z,5.87
2022-09-21T21:27:45.239Z,6.00
2022-09-21T21:30:12.451Z,7.13
2022-09-21T21:32:39.101Z,7.50
2022-09-21T21:35:06.411Z,6.27
2022-09-21T21:37:33.155Z,6.77
2022-09-21T21:40:00.461Z,6.43
2022-09-21T21:42:29.388Z,5.77
2022-09-21T21:44:56.448Z,6.70
2022-09-21T21:47:40.213Z,6.77
2022-09-21T21:50:08.008Z,6.93
2022-09-21T21:52:34.816Z,6.47
2022-09-21T21:55:02.496Z,6.30
2022-09-21T21:57:29.352Z,6.13
2022-09-21T21:59:56.070Z,7.87
2022-09-21T22:02:23.263Z,8.03
2022-09-21T22:04:50.104Z,7.87
2022-09-21T22:07:16.761Z,7.63
2022-09-21T22:09:43.504Z,7.47
2022-09-21T22:12:11.116Z,6.20
2022-09-21T22:14:38.017Z,6.70
2022-09-21T22:17:04.793Z,7.00
2022-09-21T22:19:31.725Z,5.93
2022-09-21T22:21:58.394Z,10.40
2022-09-21T22:24:26.188Z,5.73
2022-09-21T22:26:52.928Z,5.70
2022-09-21T22:29:19.698Z,7.13
2022-09-21T22:31:48.328Z,6.53
2022-09-21T22:34:15.933Z,7.93
2022-09-21T22:36:45.432Z,5.43
2022-09-21T22:39:12.548Z,6.30
2022-09-21T22:41:41.701Z,5.90
2022-09-21T22:44:09.203Z,5.90
2022-09-21T22:46:36.636Z,6.20
2022-09-21T22:49:03.987Z,6.20
2022-09-21T22:51:30.933Z,5.67
2022-09-21T22:53:58.112Z,6.50
2022-09-21T22:56:27.253Z,7.93
2022-09-21T22:58:56.003Z,5.73
2022-09-21T23:01:27.066Z,5.83
2022-09-21T23:03:57.387Z,5.67
2022-09-21T23:06:29.084Z,6.93
2022-09-21T23:08:57.712Z,5.93
2022-09-21T23:11:30.238Z,5.30
2022-09-21T23:13:58.130Z,6.30
2022-09-21T23:16:27.275Z,6.47
2022-09-21T23:18:54.899Z,6.33
2022-09-21T23:21:24.034Z,5.90
2022-09-21T23:23:54.749Z,5.50
2022-09-21T23:26:24.195Z,6.37
2022-09-21T23:28:56.499Z,7.30
2022-09-21T23:31:24.416Z,5.27
2022-09-21T23:33:53.401Z,4.73
2022-09-21T23:36:23.045Z,5.80
2022-09-21T23:38:51.325Z,5.80
2022-09-21T23:41:29.727Z,6.20
2022-09-21T23:43:57.744Z,6.03
2022-09-21T23:46:27.110Z,6.27
2022-09-21T23:48:54.433Z,9.13
2022-09-21T23:51:21.611Z,4.97
2022-09-21T23:53:48.429Z,4.67
2022-09-21T23:56:17.150Z,5.07
2022-09-21T23:58:44.048Z,5.03
